createdAt,value
2022-10-22T00:00:28.001Z,74.10
2022-10-22T00:03:15.060Z,73.80
2022-10-22T00:06:00.354Z,73.97
2022-10-22T00:08:46.210Z,74.21
2022-10-22T00:11:34.564Z,73.65
2022-10-22T00:14:19.786Z,73.98
2022-10-22T00:17:08.023Z,74.20
2022-10-22T00:19:57.326Z,73.98
2022-10-22T00:22:43.070Z,73.68
2022-10-22T00:25:28.516Z,74.05
2022-10-22T00:28:14.535Z,74.08
2022-10-22T00:30:59.854Z,74.21
2022-10-22T00:33:47.015Z,73.97
2022-10-22T00:36:36.547Z,74.20
2022-10-22T00:39:23.861Z,74.16
2022-10-22T00:42:11.501Z,74.16
2022-10-22T00:45:21.739Z,74.70
2022-10-22T00:48:16.568Z,74.06
2022-10-22T00:51:16.010Z,74.23
2022-10-22T00:54:08.484Z,74.11
2022-10-22T00:56:53.945Z,74.11
2022-10-22T00:59:39.743Z,73.98
2022-10-22T01:02:25.481Z,74.32
2022-10-22T01:05:10.852Z,73.90
2022-10-22T01:11:03.302Z,74.24
2022-10-22T01:14:03.340Z,74.45
2022-10-22T01:17:04.095Z,74.08
2022-10-22T01:19:58.604Z,74.23
2022-10-22T01:23:00.912Z,73.99
2022-10-22T01:25:55.915Z,74.26
2022-10-22T01:29:18.307Z,74.12
2022-10-22T01:32:06.945Z,74.07
2022-10-22T01:34:54.156Z,74.45
2022-10-22T01:37:43.168Z,74.54
2022-10-22T01:40:30.780Z,74.07
2022-10-22T01:43:19.330Z,74.45
2022-10-22T01:46:09.144Z,74.69
2022-10-22T01:49:13.533Z,74.46
2022-10-22T01:52:15.182Z,74.64
2022-10-22T01:55:11.214Z,74.05
2022-10-22T01:58:15.693Z,74.52
2022-10-22T02:01:09.263Z,74.51
2022-10-22T02:04:29.345Z,74.63
2022-10-22T02:07:20.110Z,74.16
2022-10-22T02:10:06.034Z,74.19
2022-10-22T02:12:54.341Z,73.97
2022-10-22T02:16:04.234Z,74.34
2022-10-22T02:18:53.325Z,74.34
2022-10-22T02:21:38.547Z,74.26
2022-10-22T02:24:24.785Z,73.79
2022-10-22T02:27:58.657Z,73.83
2022-10-22T02:30:44.451Z,74.21
2022-10-22T02:33:48.546Z,74.63
2022-10-22T02:36:36.252Z,74.20
2022-10-22T02:39:22.319Z,73.85
2022-10-22T02:42:07.640Z,74.54
2022-10-22T02:44:53.066Z,74.07
2022-10-22T02:47:38.697Z,74.03
2022-10-22T02:50:25.130Z,74.50
2022-10-22T02:53:10.492Z,74.11
2022-10-22T02:55:55.764Z,73.84
2022-10-22T02:58:41.412Z,74.07
2022-10-22T03:01:26.864Z,73.97
2022-10-22T03:04:12.154Z,74.43
2022-10-22T03:07:00.822Z,73.70
2022-10-22T03:09:47.011Z,73.99
2022-10-22T03:12:32.592Z,73.90
2022-10-22T03:15:18.018Z,73.86
2022-10-22T03:18:03.443Z,74.08
2022-10-22T03:20:48.955Z,74.00
2022-10-22T03:23:38.261Z,73.93
2022-10-22T03:26:24.734Z,73.90
2022-10-22T03:29:10.162Z,73.94
2022-10-22T03:31:55.604Z,74.21
2022-10-22T03:34:41.312Z,74.29
2022-10-22T03:37:27.115Z,74.35
2022-10-22T03:40:14.728Z,74.39
2022-10-22T03:43:01.264Z,73.84
2022-10-22T03:45:46.579Z,74.63
2022-10-22T03:48:32.814Z,74.24
2022-10-22T03:51:18.588Z,74.17
2022-10-22T03:54:03.862Z,74.36
2022-10-22T03:56:49.528Z,74.08
2022-10-22T03:59:35.007Z,74.36
2022-10-22T04:02:20.353Z,74.57
2022-10-22T04:05:06.058Z,73.93
2022-10-22T04:07:51.377Z,73.79
2022-10-22T04:10:36.773Z,74.02
2022-10-22T04:13:22.958Z,74.06
2022-10-22T04:16:08.635Z,74.07
2022-10-22T04:18:54.375Z,74.53
2022-10-22T04:21:43.274Z,74.28
2022-10-22T04:24:29.417Z,74.29
2022-10-22T04:27:15.276Z,74.01
2022-10-22T04:30:02.373Z,74.31
2022-10-22T04:32:48.319Z,73.98
2022-10-22T04:35:33.888Z,73.91
2022-10-22T04:38:19.376Z,74.09
2022-10-22T04:41:05.095Z,74.05
2022-10-22T04:43:50.465Z,74.25
2022-10-22T04:46:38.251Z,74.08
2022-10-22T04:49:24.101Z,74.18
2022-10-22T04:52:09.449Z,74.54
2022-10-22T04:54:56.440Z,74.50
2022-10-22T04:57:42.833Z,73.97
2022-10-22T05:00:29.236Z,74.44
2022-10-22T05:03:15.590Z,74.65
2022-10-22T05:06:01.139Z,74.03
2022-10-22T05:08:46.640Z,74.55
2022-10-22T05:11:34.543Z,74.54
2022-10-22T05:14:22.111Z,74.18
2022-10-22T05:17:07.964Z,74.13
2022-10-22T05:19:55.542Z,74.31
2022-10-22T05:22:41.259Z,74.35
2022-10-22T05:25:27.390Z,73.98
2022-10-22T05:28:13.713Z,74.45
2022-10-22T05:30:58.968Z,74.51
2022-10-22T05:33:45.349Z,73.90
2022-10-22T05:36:38.735Z,74.19
2022-10-22T05:39:29.837Z,74.20
2022-10-22T05:42:15.223Z,73.97
2022-10-22T05:45:01.869Z,74.08
2022-10-22T05:47:49.029Z,73.98
2022-10-22T05:50:34.633Z,73.75
2022-10-22T05:53:30.548Z,73.88
2022-10-22T05:56:19.217Z,73.99
2022-10-22T05:59:05.477Z,73.52
2022-10-22T06:02:04.333Z,73.76
2022-10-22T06:04:49.720Z,73.64
2022-10-22T06:07:35.267Z,73.61
2022-10-22T06:10:21.134Z,73.38
2022-10-22T06:13:07.583Z,73.21
2022-10-22T06:15:53.287Z,73.23
2022-10-22T06:18:39.091Z,73.48
2022-10-22T06:21:30.499Z,73.16
2022-10-22T06:24:19.499Z,73.25
2022-10-22T06:27:08.817Z,72.83
2022-10-22T06:29:54.463Z,73.04
2022-10-22T06:32:40.245Z,72.40
2022-10-22T06:35:26.207Z,72.41
2022-10-22T06:38:11.681Z,72.15
2022-10-22T06:40:57.174Z,72.14
2022-10-22T06:43:42.926Z,71.92
2022-10-22T06:46:38.101Z,72.04
2022-10-22T06:49:29.234Z,72.05
2022-10-22T06:52:14.605Z,71.40
2022-10-22T06:55:00.221Z,71.46
2022-10-22T06:57:46.028Z,71.35
2022-10-22T07:03:23.830Z,71.45
2022-10-22T07:06:10.743Z,71.06
2022-10-22T07:08:58.179Z,70.79
2022-10-22T07:11:47.058Z,70.67
2022-10-22T07:14:34.677Z,71.17
2022-10-22T07:17:20.137Z,70.96
2022-10-22T07:20:05.527Z,70.79
2022-10-22T07:22:55.167Z,70.75
2022-10-22T07:25:43.088Z,71.00
2022-10-22T07:28:31.082Z,71.30
2022-10-22T07:31:18.583Z,70.68
2022-10-22T07:34:04.897Z,71.18
2022-10-22T07:36:50.642Z,71.16
2022-10-22T07:39:37.137Z,70.49
2022-10-22T07:42:22.669Z,70.37
2022-10-22T07:45:08.049Z,70.87
2022-10-22T07:47:53.978Z,70.34
2022-10-22T07:50:39.536Z,70.49
2022-10-22T07:53:25.754Z,70.32
2022-10-22T07:56:11.953Z,69.91
2022-10-22T07:58:57.344Z,69.83
2022-10-22T08:01:42.645Z,69.76
2022-10-22T08:04:30.522Z,69.58
2022-10-22T08:07:16.112Z,69.72
2022-10-22T08:10:01.657Z,69.48
2022-10-22T08:13:22.894Z,68.90
2022-10-22T08:16:08.301Z,69.18
2022-10-22T08:18:57.872Z,68.89
2022-10-22T08:21:43.289Z,69.09
2022-10-22T08:24:28.966Z,69.36
2022-10-22T08:27:14.473Z,69.52
2022-10-22T08:29:59.909Z,68.97
2022-10-22T08:32:45.229Z,69.01
2022-10-22T08:35:30.708Z,68.77
2022-10-22T08:38:17.485Z,68.56
2022-10-22T08:41:08.199Z,68.64
2022-10-22T08:44:05.372Z,68.80
2022-10-22T08:47:12.833Z,68.54
2022-10-22T08:50:00.810Z,68.83
2022-10-22T08:52:47.059Z,68.76
2022-10-22T08:55:37.242Z,68.46
2022-10-22T08:58:45.015Z,68.10
2022-10-22T09:01:39.720Z,67.92
2022-10-22T09:05:03.409Z,68.34
2022-10-22T09:07:48.796Z,68.69
2022-10-22T09:10:36.319Z,68.80
2022-10-22T09:13:23.642Z,68.89
2022-10-22T09:16:18.284Z,68.91
2022-10-22T09:22:52.165Z,68.84
2022-10-22T09:25:40.696Z,68.76
2022-10-22T09:28:28.683Z,68.82
2022-10-22T09:31:14.283Z,68.77
2022-10-22T09:34:03.639Z,68.60
2022-10-22T09:36:49.979Z,68.70
2022-10-22T09:39:51.659Z,68.51
2022-10-22T09:42:39.022Z,68.16
2022-10-22T09:45:25.211Z,68.52
2022-10-22T09:48:29.535Z,67.84
2022-10-22T09:51:24.693Z,67.79
2022-10-22T09:54:18.824Z,67.68
2022-10-22T09:57:18.348Z,67.30
2022-10-22T10:00:07.787Z,67.83
2022-10-22T10:03:18.742Z,67.77
2022-10-22T10:06:11.940Z,67.01
2022-10-22T10:08:57.417Z,67.52
2022-10-22T10:11:52.584Z,67.67
2022-10-22T10:14:49.021Z,67.47
2022-10-22T10:17:52.916Z,66.86
2022-10-22T10:21:05.271Z,66.86
2022-10-22T10:24:08.768Z,67.53
2022-10-22T10:27:01.194Z,67.91
2022-10-22T10:30:24.846Z,66.46
2022-10-22T10:33:16.057Z,66.54
2022-10-22T10:36:18.832Z,67.09
2022-10-22T10:39:14.991Z,66.38
2022-10-22T10:42:00.540Z,66.70
2022-10-22T10:45:11.861Z,66.73
2022-10-22T10:48:19.854Z,66.49
2022-10-22T10:51:17.338Z,66.47
2022-10-22T10:54:02.354Z,66.94
2022-10-22T10:57:06.342Z,67.51
2022-10-22T11:00:34.135Z,66.46
2022-10-22T11:03:52.963Z,66.46
2022-10-22T11:06:42.168Z,66.53
2022-10-22T11:09:55.403Z,66.16
2022-10-22T11:12:57.972Z,66.40
2022-10-22T11:15:54.485Z,66.41
2022-10-22T11:19:00.586Z,66.09
2022-10-22T11:21:53.646Z,66.31
2022-10-22T11:24:44.690Z,66.32
2022-10-22T11:28:06.652Z,66.11
2022-10-22T11:30:56.678Z,66.33
2022-10-22T11:33:45.657Z,66.52
2022-10-22T11:39:45.788Z,66.53
2022-10-22T11:42:38.849Z,66.05
2022-10-22T11:45:27.456Z,66.44
2022-10-22T11:48:15.558Z,66.16
2022-10-22T11:51:17.109Z,66.49
2022-10-22T11:54:02.587Z,66.14
2022-10-22T11:56:57.139Z,66.07
2022-10-22T12:00:07.762Z,65.92
2022-10-22T12:03:05.003Z,65.79
2022-10-22T12:05:54.061Z,66.15
2022-10-22T12:08:44.666Z,66.08
2022-10-22T12:11:30.092Z,66.11
2022-10-22T12:14:46.255Z,65.58
2022-10-22T12:17:34.594Z,65.95
2022-10-22T12:20:25.714Z,66.29
2022-10-22T12:23:13.931Z,66.27
2022-10-22T12:25:59.310Z,66.38
2022-10-22T12:28:44.982Z,66.57
2022-10-22T12:31:35.826Z,66.81
2022-10-22T12:34:21.579Z,66.81
2022-10-22T12:37:08.474Z,66.57
2022-10-22T12:39:54.181Z,66.52
2022-10-22T12:42:39.536Z,66.83
2022-10-22T12:45:25.523Z,66.48
2022-10-22T12:48:16.585Z,66.94
2022-10-22T12:51:06.052Z,66.97
2022-10-22T12:53:54.488Z,67.53
2022-10-22T12:56:44.382Z,67.74
2022-10-22T12:59:57.343Z,67.54
2022-10-22T13:02:46.861Z,67.65
2022-10-22T13:05:49.704Z,67.76
2022-10-22T13:08:42.392Z,67.86
2022-10-22T13:11:30.492Z,68.38
2022-10-22T13:14:39.871Z,68.46
2022-10-22T13:17:27.850Z,68.90
2022-10-22T13:20:13.268Z,68.66
2022-10-22T13:23:10.942Z,69.48
2022-10-22T13:25:56.981Z,69.59
2022-10-22T13:28:42.615Z,69.64
2022-10-22T13:31:45.192Z,70.88
2022-10-22T13:34:35.944Z,70.40
2022-10-22T13:37:21.553Z,70.83
2022-10-22T13:40:10.921Z,70.80
2022-10-22T13:42:57.860Z,70.91
2022-10-22T13:45:43.492Z,71.06
2022-10-22T13:48:35.091Z,71.42
2022-10-22T13:51:20.730Z,71.20
2022-10-22T13:54:08.264Z,71.90
2022-10-22T13:56:54.441Z,72.24
2022-10-22T13:59:39.891Z,72.32
2022-10-22T14:02:32.987Z,72.41
2022-10-22T14:05:18.417Z,71.67
2022-10-22T14:08:04.256Z,71.78
2022-10-22T14:10:49.657Z,71.94
2022-10-22T14:13:38.551Z,72.09
2022-10-22T14:16:26.450Z,71.96
2022-10-22T14:19:13.937Z,71.96
2022-10-22T14:21:59.523Z,72.08
2022-10-22T14:24:44.978Z,71.78
2022-10-22T14:27:33.484Z,71.89
2022-10-22T14:30:18.972Z,72.03
2022-10-22T14:33:04.536Z,72.20
2022-10-22T14:35:50.143Z,72.25
2022-10-22T14:38:37.675Z,71.97
2022-10-22T14:41:35.586Z,72.23
2022-10-22T14:44:21.070Z,72.31
2022-10-22T14:47:06.418Z,72.62
2022-10-22T14:49:51.978Z,72.28
2022-10-22T14:52:37.421Z,72.77
2022-10-22T14:55:23.134Z,72.74
2022-10-22T14:58:08.884Z,72.79
2022-10-22T15:00:54.578Z,72.68
2022-10-22T15:03:40.460Z,72.86
2022-10-22T15:06:26.963Z,72.35
2022-10-22T15:09:12.765Z,72.59
2022-10-22T15:11:58.333Z,72.67
2022-10-22T15:14:44.056Z,72.61
2022-10-22T15:17:29.653Z,72.57
2022-10-22T15:20:18.824Z,72.65
2022-10-22T15:23:04.405Z,72.85
2022-10-22T15:25:49.826Z,72.90
2022-10-22T15:28:35.824Z,72.57
2022-10-22T15:31:21.748Z,72.67
2022-10-22T15:34:07.256Z,73.00
2022-10-22T15:36:53.648Z,72.75
2022-10-22T15:39:39.275Z,72.85
2022-10-22T15:42:24.781Z,72.82
2022-10-22T15:45:17.720Z,72.43
2022-10-22T15:48:04.736Z,72.90
2022-10-22T15:50:50.831Z,72.54
2022-10-22T15:53:36.363Z,72.64
2022-10-22T15:56:22.540Z,72.51
2022-10-22T15:59:15.484Z,72.70
2022-10-22T16:02:02.249Z,72.93
2022-10-22T16:04:47.604Z,73.25
2022-10-22T16:07:33.581Z,73.06
2022-10-22T16:10:19.070Z,73.48
2022-10-22T16:13:04.646Z,73.29
2022-10-22T16:15:53.683Z,73.51
2022-10-22T16:18:40.359Z,73.01
2022-10-22T16:21:31.184Z,73.46
2022-10-22T16:24:19.306Z,73.37
2022-10-22T16:30:15.320Z,72.91
2022-10-22T16:33:03.352Z,72.63
2022-10-22T16:35:50.185Z,73.16
2022-10-22T16:38:35.723Z,72.93
2022-10-22T16:41:31.219Z,72.79
2022-10-22T16:44:16.714Z,73.07
2022-10-22T16:47:02.259Z,73.45
2022-10-22T16:49:53.801Z,73.08
2022-10-22T16:52:39.093Z,73.17
2022-10-22T16:55:24.615Z,73.15
2022-10-22T16:58:12.816Z,73.27
2022-10-22T17:00:58.261Z,73.03
2022-10-22T17:03:43.735Z,73.31
2022-10-22T17:06:33.960Z,72.76
2022-10-22T17:09:19.585Z,72.88
2022-10-22T17:12:05.061Z,72.86
2022-10-22T17:14:50.720Z,72.89
2022-10-22T17:17:36.156Z,72.61
2022-10-22T17:20:25.526Z,72.30
2022-10-22T17:23:11.659Z,72.96
2022-10-22T17:26:02.673Z,72.79
2022-10-22T17:28:48.877Z,72.65
2022-10-22T17:31:37.790Z,72.60
2022-10-22T17:34:26.462Z,72.59
2022-10-22T17:37:11.765Z,72.43
2022-10-22T17:39:57.200Z,72.57
2022-10-22T17:42:43.550Z,72.43
2022-10-22T17:45:29.441Z,72.56
2022-10-22T17:48:15.219Z,72.82
2022-10-22T17:51:01.759Z,72.66
2022-10-22T17:53:47.223Z,72.23
2022-10-22T17:56:39.971Z,72.39
2022-10-22T17:59:27.294Z,72.76
2022-10-22T18:02:12.834Z,72.63
2022-10-22T18:04:58.131Z,72.34
2022-10-22T18:07:43.619Z,72.65
2022-10-22T18:10:29.311Z,72.98
2022-10-22T18:13:14.861Z,72.40
2022-10-22T18:16:00.368Z,72.81
2022-10-22T18:18:46.325Z,72.78
2022-10-22T18:21:33.556Z,72.43
2022-10-22T18:24:19.002Z,72.79
2022-10-22T18:27:04.715Z,72.49
2022-10-22T18:29:50.799Z,72.36
2022-10-22T18:32:41.497Z,72.44
2022-10-22T18:35:28.223Z,72.52
2022-10-22T18:38:14.043Z,72.32
2022-10-22T18:41:04.915Z,72.39
2022-10-22T18:43:55.598Z,72.37
2022-10-22T18:46:41.938Z,72.22
2022-10-22T18:49:27.398Z,72.42
2022-10-22T18:52:13.008Z,72.25
2022-10-22T18:54:58.437Z,72.28
2022-10-22T18:57:44.390Z,72.37
2022-10-22T19:00:30.784Z,72.52
2022-10-22T19:03:16.532Z,72.58
2022-10-22T19:06:10.603Z,72.29
2022-10-22T19:08:56.819Z,72.29
2022-10-22T19:11:42.764Z,72.40
2022-10-22T19:14:28.153Z,72.50
2022-10-22T19:17:13.901Z,72.51
2022-10-22T19:19:59.351Z,72.45
2022-10-22T19:22:47.855Z,72.48
2022-10-22T19:25:33.357Z,72.47
2022-10-22T19:28:19.330Z,72.90
2022-10-22T19:31:04.717Z,72.70
2022-10-22T19:33:50.059Z,72.57
2022-10-22T19:36:38.598Z,72.49
2022-10-22T19:39:24.844Z,72.50
2022-10-22T19:42:10.748Z,72.15
2022-10-22T19:44:56.135Z,72.73
2022-10-22T19:47:42.859Z,72.55
2022-10-22T19:50:28.377Z,72.35
2022-10-22T19:53:14.410Z,73.09
2022-10-22T19:56:04.924Z,72.75
2022-10-22T19:58:50.347Z,72.90
2022-10-22T20:01:38.656Z,72.91
2022-10-22T20:04:24.187Z,72.68
2022-10-22T20:07:10.304Z,72.31
2022-10-22T20:09:58.662Z,72.68
2022-10-22T20:12:44.055Z,72.50
2022-10-22T20:15:29.372Z,72.91
2022-10-22T20:18:15.069Z,72.78
2022-10-22T20:21:00.632Z,72.85
2022-10-22T20:23:45.962Z,72.22
2022-10-22T20:26:31.827Z,72.18
2022-10-22T20:29:17.539Z,72.30
2022-10-22T20:32:05.484Z,72.66
2022-10-22T20:34:56.453Z,72.49
2022-10-22T20:37:42.001Z,72.14
2022-10-22T20:40:28.084Z,72.19
2022-10-22T20:43:15.553Z,72.51
2022-10-22T20:46:00.966Z,72.32
2022-10-22T20:48:47.573Z,72.39
2022-10-22T20:51:33.643Z,72.15
2022-10-22T20:54:19.023Z,72.46
2022-10-22T20:57:04.778Z,72.57
2022-10-22T20:59:51.343Z,72.61
2022-10-22T21:02:36.871Z,72.28
2022-10-22T21:05:22.149Z,72.04
2022-10-22T21:08:08.900Z,72.28
2022-10-22T21:10:54.861Z,72.35
2022-10-22T21:13:42.741Z,72.69
2022-10-22T21:16:31.069Z,72.74
2022-10-22T21:19:17.725Z,72.46
2022-10-22T21:22:03.608Z,72.42
2022-10-22T21:24:50.737Z,72.64
2022-10-22T21:27:36.118Z,72.51
2022-10-22T21:30:22.098Z,72.11
2022-10-22T21:33:07.630Z,72.38
2022-10-22T21:35:53.389Z,72.17
2022-10-22T21:38:40.099Z,72.39
2022-10-22T21:41:30.974Z,71.95
2022-10-22T21:44:16.515Z,72.20
2022-10-22T21:47:01.932Z,72.39
2022-10-22T21:49:47.353Z,72.37
2022-10-22T21:52:32.784Z,72.08
2022-10-22T21:55:18.262Z,72.47
2022-10-22T21:58:03.944Z,72.56
2022-10-22T22:00:49.721Z,72.65
2022-10-22T22:03:35.140Z,72.13
2022-10-22T22:06:23.866Z,71.97
2022-10-22T22:09:11.968Z,72.19
2022-10-22T22:11:57.486Z,71.65
2022-10-22T22:14:42.804Z,72.06
2022-10-22T22:17:28.776Z,71.89
2022-10-22T22:20:14.465Z,71.57
2022-10-22T22:23:00.230Z,72.33
2022-10-22T22:25:45.696Z,71.87
2022-10-22T22:28:31.364Z,71.96
2022-10-22T22:31:17.397Z,71.98
2022-10-22T22:34:03.276Z,72.11
2022-10-22T22:36:56.233Z,71.54
2022-10-22T22:39:42.077Z,72.16
2022-10-22T22:42:27.788Z,71.63
2022-10-22T22:45:13.099Z,71.82
2022-10-22T22:47:58.654Z,71.72
2022-10-22T22:50:44.118Z,72.06
2022-10-22T22:53:29.665Z,71.75
2022-10-22T22:56:46.028Z,72.12
2022-10-22T22:59:31.578Z,71.96
2022-10-22T23:02:17.158Z,71.66
2022-10-22T23:05:02.603Z,71.89
2022-10-22T23:07:48.088Z,71.31
2022-10-22T23:10:33.481Z,71.79
2022-10-22T23:13:18.858Z,71.57
2022-10-22T23:16:04.453Z,71.75
2022-10-22T23:18:49.854Z,71.49
2022-10-22T23:21:37.702Z,71.41
2022-10-22T23:24:26.655Z,71.28
2022-10-22T23:27:13.923Z,70.96
2022-10-22T23:29:59.553Z,71.52
2022-10-22T23:32:44.995Z,71.14
2022-10-22T23:35:30.427Z,71.52
2022-10-22T23:38:17.456Z,71.03
2022-10-22T23:41:02.822Z,71.11
2022-10-22T23:43:49.468Z,71.14
2022-10-22T23:46:35.774Z,71.46
2022-10-22T23:49:21.435Z,71.47
2022-10-22T23:52:07.059Z,71.57
2022-10-22T23:54:52.883Z,71.49
2022-10-22T23:57:38.579Z,70.91
